sensor_id;sensor_type;location;lat;lon;timestamp;P1;durP1;ratioP1;P2;durP2;ratioP2
73575;SDS011;61859;49.204;8.140;2022-07-11T00:01:43;3.27;;;2.53;;
73575;SDS011;61859;49.204;8.140;2022-07-11T00:04:08;3.10;;;2.20;;
73575;SDS011;61859;49.204;8.140;2022-07-11T00:06:34;2.50;;;2.00;;
73575;SDS011;61859;49.204;8.140;2022-07-11T00:08:59;2.70;;;2.50;;
73575;SDS011;61859;49.204;8.140;2022-07-11T00:11:25;2.80;;;2.33;;
73575;SDS011;61859;49.204;8.140;2022-07-11T00:13:51;3.87;;;2.50;;
73575;SDS011;61859;49.204;8.140;2022-07-11T00:16:16;2.50;;;2.20;;
73575;SDS011;61859;49.204;8.140;2022-07-11T00:18:42;4.30;;;2.50;;
73575;SDS011;61859;49.204;8.140;2022-07-11T00:21:07;3.93;;;2.30;;
73575;SDS011;61859;49.204;8.140;2022-07-11T00:23:33;2.60;;;2.40;;
73575;SDS011;61859;49.204;8.140;2022-07-11T00:25:59;3.23;;;2.33;;
73575;SDS011;61859;49.204;8.140;2022-07-11T00:28:25;2.63;;;2.43;;
73575;SDS011;61859;49.204;8.140;2022-07-11T00:30:50;2.70;;;2.50;;
73575;SDS011;61859;49.204;8.140;2022-07-11T00:33:17;3.10;;;2.30;;
73575;SDS011;61859;49.204;8.140;2022-07-11T00:35:43;3.13;;;2.43;;
73575;SDS011;61859;49.204;8.140;2022-07-11T00:38:09;2.97;;;2.50;;
73575;SDS011;61859;49.204;8.140;2022-07-11T00:40:34;2.90;;;2.70;;
73575;SDS011;61859;49.204;8.140;2022-07-11T00:43:02;3.03;;;2.50;;
73575;SDS011;61859;49.204;8.140;2022-07-11T00:45:28;3.53;;;2.50;;
73575;SDS011;61859;49.204;8.140;2022-07-11T00:47:54;2.37;;;2.17;;
73575;SDS011;61859;49.204;8.140;2022-07-11T00:50:20;2.40;;;2.20;;
73575;SDS011;61859;49.204;8.140;2022-07-11T00:52:46;2.87;;;1.93;;
73575;SDS011;61859;49.204;8.140;2022-07-11T00:55:12;3.67;;;2.30;;
73575;SDS011;61859;49.204;8.140;2022-07-11T00:57:38;2.80;;;2.30;;
73575;SDS011;61859;49.204;8.140;2022-07-11T01:00:04;2.43;;;2.20;;
73575;SDS011;61859;49.204;8.140;2022-07-11T01:02:31;2.60;;;2.37;;
73575;SDS011;61859;49.204;8.140;2022-07-11T01:04:57;3.37;;;2.57;;
73575;SDS011;61859;49.204;8.140;2022-07-11T01:07:23;2.80;;;2.40;;
73575;SDS011;61859;49.204;8.140;2022-07-11T01:09:50;2.67;;;2.47;;
73575;SDS011;61859;49.204;8.140;2022-07-11T01:12:15;2.63;;;2.43;;
73575;SDS011;61859;49.204;8.140;2022-07-11T01:14:54;4.50;;;2.60;;
73575;SDS011;61859;49.204;8.140;2022-07-11T01:17:21;2.70;;;2.50;;
73575;SDS011;61859;49.204;8.140;2022-07-11T01:19:47;4.13;;;2.50;;
73575;SDS011;61859;49.204;8.140;2022-07-11T01:22:16;2.90;;;2.37;;
73575;SDS011;61859;49.204;8.140;2022-07-11T01:24:45;4.73;;;2.80;;
73575;SDS011;61859;49.204;8.140;2022-07-11T01:27:11;3.63;;;2.73;;
73575;SDS011;61859;49.204;8.140;2022-07-11T01:29:38;2.77;;;2.57;;
73575;SDS011;61859;49.204;8.140;2022-07-11T01:32:04;2.97;;;2.67;;
73575;SDS011;61859;49.204;8.140;2022-07-11T01:34:31;2.90;;;2.50;;
73575;SDS011;61859;49.204;8.140;2022-07-11T01:36:56;2.50;;;2.30;;
73575;SDS011;61859;49.204;8.140;2022-07-11T01:39:22;3.10;;;2.80;;
73575;SDS011;61859;49.204;8.140;2022-07-11T01:41:48;3.73;;;2.80;;
73575;SDS011;61859;49.204;8.140;2022-07-11T01:44:14;3.77;;;2.70;;
73575;SDS011;61859;49.204;8.140;2022-07-11T01:46:40;2.87;;;2.43;;
73575;SDS011;61859;49.204;8.140;2022-07-11T01:49:05;3.20;;;2.87;;
73575;SDS011;61859;49.204;8.140;2022-07-11T01:51:31;2.70;;;2.50;;
73575;SDS011;61859;49.204;8.140;2022-07-11T01:53:57;2.50;;;2.30;;
73575;SDS011;61859;49.204;8.140;2022-07-11T01:56:22;2.83;;;2.60;;
73575;SDS011;61859;49.204;8.140;2022-07-11T01:58:48;3.00;;;2.70;;
73575;SDS011;61859;49.204;8.140;2022-07-11T02:01:14;2.63;;;2.43;;
73575;SDS011;61859;49.204;8.140;2022-07-11T02:03:41;2.87;;;2.67;;
73575;SDS011;61859;49.204;8.140;2022-07-11T02:06:07;2.93;;;2.73;;
73575;SDS011;61859;49.204;8.140;2022-07-11T02:08:33;3.57;;;2.93;;
73575;SDS011;61859;49.204;8.140;2022-07-11T02:10:59;5.03;;;3.13;;
73575;SDS011;61859;49.204;8.140;2022-07-11T02:13:25;3.43;;;3.17;;
73575;SDS011;61859;49.204;8.140;2022-07-11T02:15:50;3.20;;;2.90;;
73575;SDS011;61859;49.204;8.140;2022-07-11T02:18:18;3.67;;;2.87;;
73575;SDS011;61859;49.204;8.140;2022-07-11T02:20:45;2.80;;;2.60;;
73575;SDS011;61859;49.204;8.140;2022-07-11T02:23:11;3.43;;;3.13;;
73575;SDS011;61859;49.204;8.140;2022-07-11T02:25:37;3.27;;;3.03;;
73575;SDS011;61859;49.204;8.140;2022-07-11T02:28:04;3.23;;;2.97;;
73575;SDS011;61859;49.204;8.140;2022-07-11T02:30:30;2.73;;;2.53;;
73575;SDS011;61859;49.204;8.140;2022-07-11T02:32:56;3.30;;;3.00;;
73575;SDS011;61859;49.204;8.140;2022-07-11T02:35:22;2.90;;;2.70;;
73575;SDS011;61859;49.204;8.140;2022-07-11T02:37:47;2.90;;;2.67;;
73575;SDS011;61859;49.204;8.140;2022-07-11T02:40:13;3.20;;;2.90;;
73575;SDS011;61859;49.204;8.140;2022-07-11T02:42:39;3.00;;;2.80;;
73575;SDS011;61859;49.204;8.140;2022-07-11T02:45:05;2.70;;;2.50;;
73575;SDS011;61859;49.204;8.140;2022-07-11T02:47:34;3.33;;;2.63;;
73575;SDS011;61859;49.204;8.140;2022-07-11T02:50:01;4.63;;;2.90;;
73575;SDS011;61859;49.204;8.140;2022-07-11T02:52:27;3.80;;;2.87;;
73575;SDS011;61859;49.204;8.140;2022-07-11T02:54:53;2.83;;;2.63;;
73575;SDS011;61859;49.204;8.140;2022-07-11T02:57:18;2.70;;;2.37;;
73575;SDS011;61859;49.204;8.140;2022-07-11T02:59:44;2.80;;;2.60;;
73575;SDS011;61859;49.204;8.140;2022-07-11T03:02:09;2.83;;;2.63;;
73575;SDS011;61859;49.204;8.140;2022-07-11T03:04:35;5.27;;;3.20;;
73575;SDS011;61859;49.204;8.140;2022-07-11T03:07:00;3.33;;;3.03;;
73575;SDS011;61859;49.204;8.140;2022-07-11T03:09:26;2.90;;;2.70;;
73575;SDS011;61859;49.204;8.140;2022-07-11T03:11:52;3.33;;;2.97;;
73575;SDS011;61859;49.204;8.140;2022-07-11T03:14:17;3.93;;;2.73;;
73575;SDS011;61859;49.204;8.140;2022-07-11T03:16:43;3.20;;;2.90;;
73575;SDS011;61859;49.204;8.140;2022-07-11T03:19:09;4.00;;;2.83;;
73575;SDS011;61859;49.204;8.140;2022-07-11T03:21:34;3.10;;;2.90;;
73575;SDS011;61859;49.204;8.140;2022-07-11T03:24:00;2.63;;;2.43;;
73575;SDS011;61859;49.204;8.140;2022-07-11T03:26:25;2.90;;;2.70;;
73575;SDS011;61859;49.204;8.140;2022-07-11T03:28:51;3.87;;;2.80;;
73575;SDS011;61859;49.204;8.140;2022-07-11T03:31:16;2.77;;;2.57;;
73575;SDS011;61859;49.204;8.140;2022-07-11T03:33:43;2.97;;;2.63;;
73575;SDS011;61859;49.204;8.140;2022-07-11T03:36:09;2.87;;;2.60;;
73575;SDS011;61859;49.204;8.140;2022-07-11T03:38:35;3.13;;;2.83;;
73575;SDS011;61859;49.204;8.140;2022-07-11T03:41:03;2.80;;;2.60;;
73575;SDS011;61859;49.204;8.140;2022-07-11T03:43:29;3.50;;;2.77;;
73575;SDS011;61859;49.204;8.140;2022-07-11T03:48:21;3.03;;;2.73;;
73575;SDS011;61859;49.204;8.140;2022-07-11T03:50:46;2.87;;;2.53;;
73575;SDS011;61859;49.204;8.140;2022-07-11T03:53:13;3.17;;;2.97;;
73575;SDS011;61859;49.204;8.140;2022-07-11T03:55:39;2.93;;;2.73;;
73575;SDS011;61859;49.204;8.140;2022-07-11T03:58:04;3.07;;;2.77;;
73575;SDS011;61859;49.204;8.140;2022-07-11T04:00:30;3.00;;;2.67;;
73575;SDS011;61859;49.204;8.140;2022-07-11T04:02:56;2.77;;;2.50;;
73575;SDS011;61859;49.204;8.140;2022-07-11T04:05:22;3.43;;;2.83;;
73575;SDS011;61859;49.204;8.140;2022-07-11T04:07:48;3.60;;;2.53;;
73575;SDS011;61859;49.204;8.140;2022-07-11T04:10:14;3.80;;;2.50;;
73575;SDS011;61859;49.204;8.140;2022-07-11T04:12:41;4.10;;;2.70;;
73575;SDS011;61859;49.204;8.140;2022-07-11T04:15:06;2.67;;;2.43;;
73575;SDS011;61859;49.204;8.140;2022-07-11T04:17:32;3.50;;;2.97;;
73575;SDS011;61859;49.204;8.140;2022-07-11T04:19:58;3.53;;;2.60;;
73575;SDS011;61859;49.204;8.140;2022-07-11T04:22:23;3.50;;;2.77;;
73575;SDS011;61859;49.204;8.140;2022-07-11T04:24:49;4.30;;;2.77;;
73575;SDS011;61859;49.204;8.140;2022-07-11T04:27:15;3.87;;;2.70;;
73575;SDS011;61859;49.204;8.140;2022-07-11T04:29:41;5.10;;;2.53;;
73575;SDS011;61859;49.204;8.140;2022-07-11T04:32:06;2.93;;;2.53;;
73575;SDS011;61859;49.204;8.140;2022-07-11T04:34:32;3.83;;;2.33;;
73575;SDS011;61859;49.204;8.140;2022-07-11T04:36:57;2.33;;;2.20;;
73575;SDS011;61859;49.204;8.140;2022-07-11T04:39:23;3.27;;;2.90;;
73575;SDS011;61859;49.204;8.140;2022-07-11T04:41:49;2.90;;;2.53;;
73575;SDS011;61859;49.204;8.140;2022-07-11T04:44:15;3.87;;;2.77;;
73575;SDS011;61859;49.204;8.140;2022-07-11T04:46:41;3.87;;;2.50;;
73575;SDS011;61859;49.204;8.140;2022-07-11T04:49:06;2.97;;;2.20;;
73575;SDS011;61859;49.204;8.140;2022-07-11T04:51:32;3.70;;;2.57;;
73575;SDS011;61859;49.204;8.140;2022-07-11T04:53:58;2.63;;;2.20;;
73575;SDS011;61859;49.204;8.140;2022-07-11T04:56:23;3.23;;;2.43;;
73575;SDS011;61859;49.204;8.140;2022-07-11T04:58:49;2.83;;;2.40;;
73575;SDS011;61859;49.204;8.140;2022-07-11T05:01:14;2.53;;;2.33;;
73575;SDS011;61859;49.204;8.140;2022-07-11T05:03:40;2.40;;;2.20;;
73575;SDS011;61859;49.204;8.140;2022-07-11T05:06:05;3.97;;;2.40;;
73575;SDS011;61859;49.204;8.140;2022-07-11T05:08:31;2.40;;;2.20;;
73575;SDS011;61859;49.204;8.140;2022-07-11T05:11:01;2.67;;;2.33;;
73575;SDS011;61859;49.204;8.140;2022-07-11T05:13:27;2.60;;;2.40;;
73575;SDS011;61859;49.204;8.140;2022-07-11T05:15:53;2.67;;;2.23;;
73575;SDS011;61859;49.204;8.140;2022-07-11T05:18:18;2.97;;;2.27;;
73575;SDS011;61859;49.204;8.140;2022-07-11T05:20:44;2.57;;;2.37;;
73575;SDS011;61859;49.204;8.140;2022-07-11T05:23:09;6.30;;;2.27;;
73575;SDS011;61859;49.204;8.140;2022-07-11T05:25:35;3.07;;;2.43;;
73575;SDS011;61859;49.204;8.140;2022-07-11T05:28:00;2.73;;;2.53;;
73575;SDS011;61859;49.204;8.140;2022-07-11T05:30:26;3.63;;;2.67;;
73575;SDS011;61859;49.204;8.140;2022-07-11T05:32:52;2.70;;;2.50;;
73575;SDS011;61859;49.204;8.140;2022-07-11T05:35:17;2.60;;;2.37;;
73575;SDS011;61859;49.204;8.140;2022-07-11T05:37:43;2.53;;;2.30;;
73575;SDS011;61859;49.204;8.140;2022-07-11T05:40:09;3.13;;;2.40;;
73575;SDS011;61859;49.204;8.140;2022-07-11T05:42:35;2.43;;;2.20;;
73575;SDS011;61859;49.204;8.140;2022-07-11T05:45:00;2.40;;;2.20;;
73575;SDS011;61859;49.204;8.140;2022-07-11T05:47:26;2.73;;;2.07;;
73575;SDS011;61859;49.204;8.140;2022-07-11T05:49:51;2.30;;;2.10;;
73575;SDS011;61859;49.204;8.140;2022-07-11T05:52:17;7.13;;;2.40;;
73575;SDS011;61859;49.204;8.140;2022-07-11T05:54:42;5.07;;;2.43;;
73575;SDS011;61859;49.204;8.140;2022-07-11T05:57:08;5.13;;;2.33;;
73575;SDS011;61859;49.204;8.140;2022-07-11T05:59:34;2.30;;;2.10;;
73575;SDS011;61859;49.204;8.140;2022-07-11T06:02:03;3.20;;;2.10;;
73575;SDS011;61859;49.204;8.140;2022-07-11T06:04:29;3.73;;;2.63;;
73575;SDS011;61859;49.204;8.140;2022-07-11T06:06:54;4.00;;;2.23;;
73575;SDS011;61859;49.204;8.140;2022-07-11T06:09:20;2.43;;;2.27;;
73575;SDS011;61859;49.204;8.140;2022-07-11T06:11:45;3.90;;;1.87;;
73575;SDS011;61859;49.204;8.140;2022-07-11T06:14:11;2.57;;;2.00;;
73575;SDS011;61859;49.204;8.140;2022-07-11T06:16:36;2.03;;;1.90;;
73575;SDS011;61859;49.204;8.140;2022-07-11T06:19:02;2.20;;;1.97;;
73575;SDS011;61859;49.204;8.140;2022-07-11T06:21:28;2.50;;;1.93;;
73575;SDS011;61859;49.204;8.140;2022-07-11T06:23:53;2.00;;;1.80;;
73575;SDS011;61859;49.204;8.140;2022-07-11T06:26:19;3.63;;;1.80;;
73575;SDS011;61859;49.204;8.140;2022-07-11T06:28:45;3.93;;;2.00;;
73575;SDS011;61859;49.204;8.140;2022-07-11T06:31:11;3.77;;;2.33;;
73575;SDS011;61859;49.204;8.140;2022-07-11T06:33:38;2.60;;;1.83;;
73575;SDS011;61859;49.204;8.140;2022-07-11T06:36:04;2.60;;;1.97;;
73575;SDS011;61859;49.204;8.140;2022-07-11T06:38:30;2.57;;;2.10;;
73575;SDS011;61859;49.204;8.140;2022-07-11T06:40:57;2.47;;;1.83;;
73575;SDS011;61859;49.204;8.140;2022-07-11T06:43:23;1.77;;;1.67;;
73575;SDS011;61859;49.204;8.140;2022-07-11T06:45:49;2.30;;;1.80;;
73575;SDS011;61859;49.204;8.140;2022-07-11T06:48:15;4.03;;;1.93;;
73575;SDS011;61859;49.204;8.140;2022-07-11T06:50:41;4.30;;;2.07;;
73575;SDS011;61859;49.204;8.140;2022-07-11T06:53:07;2.90;;;1.87;;
73575;SDS011;61859;49.204;8.140;2022-07-11T06:55:32;2.50;;;2.00;;
73575;SDS011;61859;49.204;8.140;2022-07-11T06:57:59;2.33;;;1.90;;
73575;SDS011;61859;49.204;8.140;2022-07-11T07:00:25;4.57;;;2.23;;
73575;SDS011;61859;49.204;8.140;2022-07-11T07:02:52;3.77;;;2.10;;
73575;SDS011;61859;49.204;8.140;2022-07-11T07:05:19;2.03;;;1.93;;
73575;SDS011;61859;49.204;8.140;2022-07-11T07:07:45;3.27;;;2.33;;
73575;SDS011;61859;49.204;8.140;2022-07-11T07:10:11;4.37;;;2.13;;
73575;SDS011;61859;49.204;8.140;2022-07-11T07:12:39;4.37;;;1.87;;
73575;SDS011;61859;49.204;8.140;2022-07-11T07:15:05;3.17;;;1.90;;
73575;SDS011;61859;49.204;8.140;2022-07-11T07:17:31;2.03;;;1.83;;
73575;SDS011;61859;49.204;8.140;2022-07-11T07:19:57;1.90;;;1.63;;
73575;SDS011;61859;49.204;8.140;2022-07-11T07:22:23;7.67;;;2.37;;
73575;SDS011;61859;49.204;8.140;2022-07-11T07:24:48;2.03;;;1.70;;
73575;SDS011;61859;49.204;8.140;2022-07-11T07:27:14;3.90;;;1.80;;
73575;SDS011;61859;49.204;8.140;2022-07-11T07:29:39;2.23;;;1.50;;
73575;SDS011;61859;49.204;8.140;2022-07-11T07:32:05;3.60;;;2.27;;
73575;SDS011;61859;49.204;8.140;2022-07-11T07:34:31;2.93;;;2.33;;
73575;SDS011;61859;49.204;8.140;2022-07-11T07:36:57;4.80;;;2.43;;
73575;SDS011;61859;49.204;8.140;2022-07-11T07:39:23;2.70;;;2.00;;
73575;SDS011;61859;49.204;8.140;2022-07-11T07:41:49;5.03;;;1.87;;
73575;SDS011;61859;49.204;8.140;2022-07-11T07:44:15;2.83;;;2.20;;
73575;SDS011;61859;49.204;8.140;2022-07-11T07:46:40;3.42;;;2.47;;
73575;SDS011;61859;49.204;8.140;2022-07-11T07:49:06;2.97;;;2.10;;
73575;SDS011;61859;49.204;8.140;2022-07-11T07:51:31;3.55;;;2.00;;
73575;SDS011;61859;49.204;8.140;2022-07-11T07:53:58;3.15;;;2.00;;
73575;SDS011;61859;49.204;8.140;2022-07-11T07:56:24;4.28;;;1.77;;
73575;SDS011;61859;49.204;8.140;2022-07-11T07:58:50;4.38;;;1.88;;
73575;SDS011;61859;49.204;8.140;2022-07-11T08:01:16;5.10;;;2.22;;
73575;SDS011;61859;49.204;8.140;2022-07-11T08:04:10;2.40;;;1.30;;
73575;SDS011;61859;49.204;8.140;2022-07-11T08:06:36;2.15;;;1.48;;
73575;SDS011;61859;49.204;8.140;2022-07-11T08:09:02;3.05;;;1.67;;
73575;SDS011;61859;49.204;8.140;2022-07-11T08:11:29;1.55;;;1.45;;
73575;SDS011;61859;49.204;8.140;2022-07-11T08:13:55;1.63;;;1.40;;
73575;SDS011;61859;49.204;8.140;2022-07-11T08:16:21;3.42;;;1.38;;
73575;SDS011;61859;49.204;8.140;2022-07-11T08:18:46;3.38;;;1.70;;
73575;SDS011;61859;49.204;8.140;2022-07-11T08:21:12;1.83;;;1.35;;
73575;SDS011;61859;49.204;8.140;2022-07-11T08:23:38;1.73;;;1.23;;
73575;SDS011;61859;49.204;8.140;2022-07-11T08:26:03;3.42;;;1.55;;
73575;SDS011;61859;49.204;8.140;2022-07-11T08:28:29;2.10;;;1.40;;
73575;SDS011;61859;49.204;8.140;2022-07-11T08:30:55;4.25;;;1.33;;
73575;SDS011;61859;49.204;8.140;2022-07-11T08:33:21;5.55;;;2.08;;
73575;SDS011;61859;49.204;8.140;2022-07-11T08:35:46;3.47;;;1.65;;
73575;SDS011;61859;49.204;8.140;2022-07-11T08:38:12;3.42;;;1.40;;
73575;SDS011;61859;49.204;8.140;2022-07-11T08:40:40;3.47;;;1.65;;
73575;SDS011;61859;49.204;8.140;2022-07-11T08:43:12;3.50;;;1.60;;
73575;SDS011;61859;49.204;8.140;2022-07-11T08:45:39;2.33;;;1.45;;
73575;SDS011;61859;49.204;8.140;2022-07-11T08:48:06;1.88;;;1.30;;
73575;SDS011;61859;49.204;8.140;2022-07-11T08:50:34;1.98;;;1.65;;
73575;SDS011;61859;49.204;8.140;2022-07-11T08:52:59;1.45;;;1.23;;
73575;SDS011;61859;49.204;8.140;2022-07-11T08:55:27;7.53;;;1.95;;
73575;SDS011;61859;49.204;8.140;2022-07-11T08:57:53;1.63;;;1.15;;
73575;SDS011;61859;49.204;8.140;2022-07-11T09:00:18;1.92;;;1.40;;
73575;SDS011;61859;49.204;8.140;2022-07-11T09:02:44;1.83;;;1.40;;
73575;SDS011;61859;49.204;8.140;2022-07-11T09:05:11;1.95;;;1.50;;
73575;SDS011;61859;49.204;8.140;2022-07-11T09:07:42;1.48;;;1.08;;
73575;SDS011;61859;49.204;8.140;2022-07-11T09:10:09;3.65;;;1.20;;
73575;SDS011;61859;49.204;8.140;2022-07-11T09:12:34;1.65;;;1.27;;
73575;SDS011;61859;49.204;8.140;2022-07-11T09:15:00;1.30;;;1.10;;
73575;SDS011;61859;49.204;8.140;2022-07-11T09:17:27;2.33;;;1.33;;
73575;SDS011;61859;49.204;8.140;2022-07-11T09:19:55;3.30;;;1.65;;
73575;SDS011;61859;49.204;8.140;2022-07-11T09:22:20;1.52;;;1.13;;
73575;SDS011;61859;49.204;8.140;2022-07-11T09:25:09;1.35;;;1.25;;
73575;SDS011;61859;49.204;8.140;2022-07-11T09:27:52;1.13;;;1.02;;
73575;SDS011;61859;49.204;8.140;2022-07-11T09:32:55;1.23;;;1.10;;
73575;SDS011;61859;49.204;8.140;2022-07-11T09:35:28;1.90;;;1.17;;
73575;SDS011;61859;49.204;8.140;2022-07-11T09:37:56;1.23;;;1.17;;
73575;SDS011;61859;49.204;8.140;2022-07-11T09:40:22;2.63;;;1.20;;
73575;SDS011;61859;49.204;8.140;2022-07-11T09:42:52;2.47;;;1.45;;
73575;SDS011;61859;49.204;8.140;2022-07-11T09:45:19;1.45;;;1.10;;
73575;SDS011;61859;49.204;8.140;2022-07-11T09:47:50;2.65;;;1.30;;
73575;SDS011;61859;49.204;8.140;2022-07-11T09:50:21;2.72;;;1.30;;
73575;SDS011;61859;49.204;8.140;2022-07-11T09:52:57;1.55;;;1.15;;
73575;SDS011;61859;49.204;8.140;2022-07-11T09:55:27;1.63;;;1.08;;
73575;SDS011;61859;49.204;8.140;2022-07-11T09:57:56;2.17;;;1.20;;
73575;SDS011;61859;49.204;8.140;2022-07-11T10:00:22;3.20;;;1.42;;
73575;SDS011;61859;49.204;8.140;2022-07-11T10:02:48;2.13;;;1.30;;
73575;SDS011;61859;49.204;8.140;2022-07-11T10:05:15;2.13;;;1.20;;
73575;SDS011;61859;49.204;8.140;2022-07-11T10:07:40;2.05;;;1.05;;
73575;SDS011;61859;49.204;8.140;2022-07-11T10:10:06;2.58;;;1.27;;
73575;SDS011;61859;49.204;8.140;2022-07-11T10:12:33;1.67;;;0.93;;
73575;SDS011;61859;49.204;8.140;2022-07-11T10:14:59;2.08;;;1.00;;
73575;SDS011;61859;49.204;8.140;2022-07-11T10:20:01;3.85;;;0.93;;
73575;SDS011;61859;49.204;8.140;2022-07-11T10:27:35;2.53;;;1.25;;
73575;SDS011;61859;49.204;8.140;2022-07-11T10:30:07;2.53;;;0.90;;
73575;SDS011;61859;49.204;8.140;2022-07-11T10:32:32;1.23;;;1.02;;
73575;SDS011;61859;49.204;8.140;2022-07-11T10:35:25;1.77;;;1.15;;
73575;SDS011;61859;49.204;8.140;2022-07-11T10:37:54;3.03;;;0.95;;
73575;SDS011;61859;49.204;8.140;2022-07-11T10:43:35;2.85;;;1.35;;
73575;SDS011;61859;49.204;8.140;2022-07-11T10:46:05;1.63;;;1.10;;
73575;SDS011;61859;49.204;8.140;2022-07-11T10:49:22;2.20;;;1.23;;
73575;SDS011;61859;49.204;8.140;2022-07-11T10:54:57;1.25;;;1.02;;
73575;SDS011;61859;49.204;8.140;2022-07-11T10:59:33;1.80;;;0.85;;
73575;SDS011;61859;49.204;8.140;2022-07-11T11:02:08;2.38;;;1.00;;
73575;SDS011;61859;49.204;8.140;2022-07-11T11:04:52;0.98;;;0.90;;
73575;SDS011;61859;49.204;8.140;2022-07-11T11:23:35;1.95;;;0.55;;
73575;SDS011;61859;49.204;8.140;2022-07-11T11:26:41;2.60;;;0.82;;
73575;SDS011;61859;49.204;8.140;2022-07-11T11:29:08;0.85;;;0.65;;
73575;SDS011;61859;49.204;8.140;2022-07-11T11:31:34;0.70;;;0.70;;
73575;SDS011;61859;49.204;8.140;2022-07-11T11:34:00;3.15;;;1.05;;
73575;SDS011;61859;49.204;8.140;2022-07-11T11:36:27;2.08;;;1.15;;
73575;SDS011;61859;49.204;8.140;2022-07-11T11:38:53;1.08;;;0.95;;
73575;SDS011;61859;49.204;8.140;2022-07-11T11:41:26;1.92;;;1.27;;
73575;SDS011;61859;49.204;8.140;2022-07-11T11:43:56;1.20;;;1.10;;
73575;SDS011;61859;49.204;8.140;2022-07-11T11:48:55;1.13;;;1.02;;
73575;SDS011;61859;49.204;8.140;2022-07-11T11:51:29;1.50;;;1.30;;
73575;SDS011;61859;49.204;8.140;2022-07-11T11:53:56;1.98;;;1.60;;
73575;SDS011;61859;49.204;8.140;2022-07-11T11:59:05;3.10;;;1.67;;
73575;SDS011;61859;49.204;8.140;2022-07-11T12:01:36;1.92;;;1.77;;
73575;SDS011;61859;49.204;8.140;2022-07-11T12:04:06;2.03;;;1.90;;
73575;SDS011;61859;49.204;8.140;2022-07-11T12:06:36;4.30;;;2.40;;
73575;SDS011;61859;49.204;8.140;2022-07-11T12:11:48;3.72;;;2.35;;
73575;SDS011;61859;49.204;8.140;2022-07-11T12:14:33;2.70;;;2.50;;
73575;SDS011;61859;49.204;8.140;2022-07-11T12:16:59;3.30;;;2.30;;
73575;SDS011;61859;49.204;8.140;2022-07-11T12:19:24;3.15;;;2.55;;
73575;SDS011;61859;49.204;8.140;2022-07-11T12:21:52;2.55;;;2.35;;
73575;SDS011;61859;49.204;8.140;2022-07-11T12:24:22;2.60;;;2.40;;
73575;SDS011;61859;49.204;8.140;2022-07-11T12:26:49;4.22;;;2.67;;
73575;SDS011;61859;49.204;8.140;2022-07-11T12:29:22;4.30;;;2.45;;
73575;SDS011;61859;49.204;8.140;2022-07-11T12:31:49;6.13;;;2.58;;
73575;SDS011;61859;49.204;8.140;2022-07-11T12:34:20;2.65;;;2.15;;
73575;SDS011;61859;49.204;8.140;2022-07-11T12:37:13;3.45;;;2.30;;
73575;SDS011;61859;49.204;8.140;2022-07-11T12:40:00;3.40;;;2.60;;
73575;SDS011;61859;49.204;8.140;2022-07-11T12:42:31;3.92;;;2.60;;
73575;SDS011;61859;49.204;8.140;2022-07-11T12:45:05;2.92;;;2.33;;
73575;SDS011;61859;49.204;8.140;2022-07-11T12:47:40;5.57;;;2.30;;
73575;SDS011;61859;49.204;8.140;2022-07-11T12:50:16;3.28;;;2.38;;
73575;SDS011;61859;49.204;8.140;2022-07-11T12:52:44;4.32;;;2.78;;
73575;SDS011;61859;49.204;8.140;2022-07-11T12:58:01;4.22;;;2.30;;
73575;SDS011;61859;49.204;8.140;2022-07-11T13:00:54;3.90;;;2.67;;
73575;SDS011;61859;49.204;8.140;2022-07-11T13:03:28;2.53;;;2.33;;
73575;SDS011;61859;49.204;8.140;2022-07-11T13:05:55;3.22;;;3.03;;
73575;SDS011;61859;49.204;8.140;2022-07-11T13:08:24;2.95;;;2.75;;
73575;SDS011;61859;49.204;8.140;2022-07-11T13:11:19;3.42;;;2.88;;
73575;SDS011;61859;49.204;8.140;2022-07-11T13:13:46;2.97;;;2.70;;
73575;SDS011;61859;49.204;8.140;2022-07-11T13:16:13;3.60;;;2.63;;
73575;SDS011;61859;49.204;8.140;2022-07-11T13:18:39;5.65;;;2.83;;
73575;SDS011;61859;49.204;8.140;2022-07-11T13:21:05;4.03;;;3.72;;
73575;SDS011;61859;49.204;8.140;2022-07-11T13:23:34;3.00;;;2.50;;
73575;SDS011;61859;49.204;8.140;2022-07-11T13:26:01;2.97;;;2.78;;
73575;SDS011;61859;49.204;8.140;2022-07-11T13:28:27;3.00;;;2.80;;
73575;SDS011;61859;49.204;8.140;2022-07-11T13:30:52;3.03;;;2.83;;
73575;SDS011;61859;49.204;8.140;2022-07-11T13:33:19;3.97;;;2.75;;
73575;SDS011;61859;49.204;8.140;2022-07-11T13:35:45;4.80;;;2.70;;
73575;SDS011;61859;49.204;8.140;2022-07-11T13:38:12;4.38;;;3.00;;
73575;SDS011;61859;49.204;8.140;2022-07-11T13:40:38;3.33;;;3.08;;
73575;SDS011;61859;49.204;8.140;2022-07-11T13:43:03;5.35;;;3.03;;
73575;SDS011;61859;49.204;8.140;2022-07-11T13:45:29;2.92;;;2.72;;
73575;SDS011;61859;49.204;8.140;2022-07-11T13:47:55;3.30;;;2.78;;
73575;SDS011;61859;49.204;8.140;2022-07-11T13:50:20;2.58;;;2.38;;
73575;SDS011;61859;49.204;8.140;2022-07-11T13:52:46;3.85;;;2.40;;
73575;SDS011;61859;49.204;8.140;2022-07-11T13:55:14;3.30;;;2.50;;
73575;SDS011;61859;49.204;8.140;2022-07-11T13:57:44;2.88;;;2.67;;
73575;SDS011;61859;49.204;8.140;2022-07-11T14:00:10;3.17;;;2.80;;
73575;SDS011;61859;49.204;8.140;2022-07-11T14:02:36;2.85;;;2.65;;
73575;SDS011;61859;49.204;8.140;2022-07-11T14:05:02;3.88;;;2.72;;
73575;SDS011;61859;49.204;8.140;2022-07-11T14:07:28;2.33;;;2.13;;
73575;SDS011;61859;49.204;8.140;2022-07-11T14:09:54;3.25;;;2.95;;
73575;SDS011;61859;49.204;8.140;2022-07-11T14:12:20;2.80;;;2.60;;
73575;SDS011;61859;49.204;8.140;2022-07-11T14:14:45;3.33;;;3.03;;
73575;SDS011;61859;49.204;8.140;2022-07-11T14:17:11;3.00;;;2.80;;
73575;SDS011;61859;49.204;8.140;2022-07-11T14:19:37;4.72;;;2.80;;
73575;SDS011;61859;49.204;8.140;2022-07-11T14:22:04;3.88;;;3.20;;
73575;SDS011;61859;49.204;8.140;2022-07-11T14:24:31;3.05;;;2.85;;
73575;SDS011;61859;49.204;8.140;2022-07-11T14:26:57;3.70;;;2.88;;
73575;SDS011;61859;49.204;8.140;2022-07-11T14:29:22;3.05;;;2.70;;
73575;SDS011;61859;49.204;8.140;2022-07-11T14:31:50;2.65;;;2.45;;
73575;SDS011;61859;49.204;8.140;2022-07-11T14:34:17;2.70;;;2.50;;
73575;SDS011;61859;49.204;8.140;2022-07-11T14:36:43;2.70;;;2.50;;
73575;SDS011;61859;49.204;8.140;2022-07-11T14:39:08;2.90;;;2.70;;
73575;SDS011;61859;49.204;8.140;2022-07-11T14:41:34;2.85;;;2.65;;
73575;SDS011;61859;49.204;8.140;2022-07-11T14:44:01;3.05;;;2.85;;
73575;SDS011;61859;49.204;8.140;2022-07-11T14:46:27;3.45;;;2.47;;
73575;SDS011;61859;49.204;8.140;2022-07-11T14:48:53;4.30;;;3.15;;
73575;SDS011;61859;49.204;8.140;2022-07-11T14:51:19;2.88;;;2.67;;
73575;SDS011;61859;49.204;8.140;2022-07-11T14:53:44;5.20;;;2.85;;
73575;SDS011;61859;49.204;8.140;2022-07-11T14:56:10;3.83;;;2.72;;
73575;SDS011;61859;49.204;8.140;2022-07-11T14:58:36;6.38;;;3.20;;
73575;SDS011;61859;49.204;8.140;2022-07-11T15:01:01;2.75;;;2.50;;
73575;SDS011;61859;49.204;8.140;2022-07-11T15:03:27;3.03;;;2.30;;
73575;SDS011;61859;49.204;8.140;2022-07-11T15:06:09;2.50;;;2.30;;
73575;SDS011;61859;49.204;8.140;2022-07-11T15:08:36;2.70;;;2.50;;
73575;SDS011;61859;49.204;8.140;2022-07-11T15:11:21;3.08;;;2.13;;
73575;SDS011;61859;49.204;8.140;2022-07-11T15:14:05;2.83;;;2.50;;
73575;SDS011;61859;49.204;8.140;2022-07-11T15:16:31;3.17;;;2.67;;
73575;SDS011;61859;49.204;8.140;2022-07-11T15:18:58;2.60;;;2.40;;
73575;SDS011;61859;49.204;8.140;2022-07-11T15:21:33;2.35;;;2.15;;
73575;SDS011;61859;49.204;8.140;2022-07-11T15:23:59;2.25;;;2.05;;
73575;SDS011;61859;49.204;8.140;2022-07-11T15:26:25;3.40;;;2.30;;
73575;SDS011;61859;49.204;8.140;2022-07-11T15:28:51;2.38;;;2.17;;
73575;SDS011;61859;49.204;8.140;2022-07-11T15:31:17;5.43;;;2.53;;
73575;SDS011;61859;49.204;8.140;2022-07-11T15:33:43;2.85;;;2.65;;
73575;SDS011;61859;49.204;8.140;2022-07-11T15:36:10;2.25;;;2.10;;
73575;SDS011;61859;49.204;8.140;2022-07-11T15:38:36;4.53;;;2.45;;